Prince Albert, Canada
Current Conditions -  °F | °C
As of 10:00 AM on Tuesday 27 Jan 2015 (Local Time) from CYPA Reporting Station
Overcast Overcast  
Wind Chill: 22°   Ceiling: 6200
Heat Index: 28°   Visibility: 15mi
Dew Point: 28°   Wind: 6mph
Humidity: 100%   Direction: 60°ENE
Pressure: 29.85"   Gusts: NA
Location:  53.2°N, 105.75°W
Report Text: CYPA 271600Z 06005KT 15SM OVC062 M02/M02 A2985 RMK SC8 SLP133
Loading
Personal Weather Stations






























Interactive Weather Map New forecast layout! Learn more

10-Day Weather Forecast

Advertisements
Track Severe Weather on mobile